createdAt,value
2023-10-09T00:00:33.980Z,100.00
2023-10-09T00:03:02.709Z,100.00
2023-10-09T00:05:40.590Z,100.00
2023-10-09T00:08:10.604Z,100.00
2023-10-09T00:10:46.949Z,100.00
2023-10-09T00:13:16.810Z,100.00
2023-10-09T00:15:45.155Z,100.00
2023-10-09T00:18:13.853Z,100.00
2023-10-09T00:20:44.095Z,100.00
2023-10-09T00:23:17.253Z,100.00
2023-10-09T00:26:09.710Z,100.00
2023-10-09T00:28:42.719Z,100.00
2023-10-09T00:31:16.032Z,100.00
2023-10-09T00:33:44.733Z,100.00
2023-10-09T00:36:19.709Z,100.00
2023-10-09T00:38:52.401Z,100.00
2023-10-09T00:41:26.244Z,100.00
2023-10-09T00:44:00.563Z,100.00
2023-10-09T00:46:30.158Z,100.00
2023-10-09T00:49:04.165Z,100.00
2023-10-09T00:51:37.007Z,100.00
2023-10-09T00:54:15.451Z,100.00
2023-10-09T00:56:53.195Z,100.00
2023-10-09T00:59:25.960Z,100.00
2023-10-09T01:01:59.158Z,100.00
2023-10-09T01:04:33.788Z,100.00
2023-10-09T01:07:10.398Z,100.00
2023-10-09T01:09:39.253Z,100.00
2023-10-09T01:12:08.873Z,100.00
2023-10-09T01:14:42.179Z,100.00
2023-10-09T01:17:13.025Z,100.00
2023-10-09T01:19:44.293Z,100.00
2023-10-09T01:22:16.012Z,100.00
2023-10-09T01:24:45.523Z,100.00
2023-10-09T01:27:16.638Z,100.00
2023-10-09T01:29:47.794Z,100.00
2023-10-09T01:32:20.669Z,100.00
2023-10-09T01:34:51.077Z,100.00
2023-10-09T01:37:23.728Z,100.00
2023-10-09T01:40:00.488Z,100.00
2023-10-09T01:42:35.751Z,100.00
2023-10-09T01:45:17.327Z,100.00
2023-10-09T01:47:52.978Z,100.00
2023-10-09T01:50:23.548Z,100.00
2023-10-09T01:52:52.665Z,100.00
2023-10-09T01:55:34.321Z,100.00
2023-10-09T01:58:18.238Z,100.00
2023-10-09T02:00:50.501Z,100.00
2023-10-09T02:03:19.960Z,100.00
2023-10-09T02:05:50.806Z,100.00
2023-10-09T02:08:23.168Z,100.00
2023-10-09T02:10:56.307Z,100.00
2023-10-09T02:13:30.462Z,100.00
2023-10-09T02:16:14.550Z,100.00
2023-10-09T02:18:54.513Z,100.00
2023-10-09T02:21:33.997Z,100.00
2023-10-09T02:24:06.907Z,100.00
2023-10-09T02:27:02.653Z,100.00
2023-10-09T02:29:36.486Z,100.00
2023-10-09T02:32:14.993Z,100.00
2023-10-09T02:34:47.695Z,100.00
2023-10-09T02:37:16.092Z,100.00
2023-10-09T02:39:48.368Z,100.00
2023-10-09T02:42:28.085Z,100.00
2023-10-09T02:44:57.447Z,100.00
2023-10-09T02:47:30.908Z,100.00
2023-10-09T02:50:07.816Z,100.00
2023-10-09T02:52:42.342Z,100.00
2023-10-09T02:55:15.310Z,100.00
2023-10-09T02:57:46.531Z,100.00
2023-10-09T03:00:20.755Z,100.00
2023-10-09T03:02:51.474Z,100.00
2023-10-09T03:05:21.984Z,100.00
2023-10-09T03:07:51.369Z,100.00
2023-10-09T03:10:19.512Z,100.00
2023-10-09T03:12:52.986Z,100.00
2023-10-09T03:15:21.607Z,100.00
2023-10-09T03:17:50.501Z,100.00
2023-10-09T03:20:19.785Z,100.00
2023-10-09T03:22:49.356Z,100.00
2023-10-09T03:25:18.294Z,100.00
2023-10-09T03:27:48.173Z,100.00
2023-10-09T03:30:24.063Z,100.00
2023-10-09T03:32:53.573Z,100.00
2023-10-09T03:35:27.421Z,100.00
2023-10-09T03:38:01.375Z,100.00
2023-10-09T03:40:29.957Z,100.00
2023-10-09T03:43:02.501Z,100.00
2023-10-09T03:45:32.817Z,100.00
2023-10-09T03:48:07.032Z,100.00
2023-10-09T03:50:38.754Z,100.00
2023-10-09T03:53:09.191Z,100.00
2023-10-09T03:55:39.605Z,100.00
2023-10-09T03:58:13.031Z,100.00
2023-10-09T04:00:47.004Z,100.00
2023-10-09T04:03:17.002Z,100.00
2023-10-09T04:05:45.964Z,100.00
2023-10-09T04:08:20.639Z,100.00
2023-10-09T04:10:58.861Z,100.00
2023-10-09T04:13:35.035Z,100.00
2023-10-09T04:16:12.596Z,100.00
2023-10-09T04:18:41.535Z,100.00
2023-10-09T04:21:20.894Z,100.00
2023-10-09T04:24:06.965Z,100.00
2023-10-09T04:26:36.334Z,100.00
2023-10-09T04:29:06.836Z,100.00
2023-10-09T04:31:38.636Z,100.00
2023-10-09T04:34:36.101Z,100.00
2023-10-09T04:37:20.972Z,100.00
2023-10-09T04:39:48.443Z,100.00
2023-10-09T04:42:37.021Z,100.00
2023-10-09T04:45:37.033Z,100.00
2023-10-09T04:48:10.268Z,100.00
2023-10-09T04:51:04.326Z,100.00
2023-10-09T04:53:40.562Z,100.00
2023-10-09T04:56:16.800Z,100.00
2023-10-09T04:58:47.343Z,100.00
2023-10-09T05:01:23.222Z,100.00
2023-10-09T05:03:58.213Z,100.00
2023-10-09T05:06:51.524Z,100.00
2023-10-09T05:09:21.778Z,100.00
2023-10-09T05:11:57.599Z,100.00
2023-10-09T05:14:40.038Z,100.00
2023-10-09T05:17:17.331Z,100.00
2023-10-09T05:19:56.106Z,100.00
2023-10-09T05:22:38.900Z,100.00
2023-10-09T05:25:17.477Z,100.00
2023-10-09T05:27:51.950Z,100.00
2023-10-09T05:30:27.111Z,100.00
2023-10-09T05:33:00.006Z,100.00
2023-10-09T05:36:00.653Z,100.00
2023-10-09T05:38:31.920Z,100.00
2023-10-09T05:41:19.146Z,100.00
2023-10-09T05:44:04.625Z,100.00
2023-10-09T05:46:37.950Z,100.00
2023-10-09T05:49:21.356Z,100.00
2023-10-09T05:51:54.422Z,100.00
2023-10-09T05:54:39.994Z,100.00
2023-10-09T05:57:25.383Z,100.00
2023-10-09T06:00:10.988Z,100.00
2023-10-09T06:03:02.138Z,100.00
2023-10-09T06:05:52.841Z,100.00
2023-10-09T06:08:26.187Z,100.00
2023-10-09T06:11:07.136Z,100.00
2023-10-09T06:13:47.162Z,100.00
2023-10-09T06:16:42.745Z,100.00
2023-10-09T06:19:14.542Z,100.00
2023-10-09T06:22:07.838Z,100.00
2023-10-09T06:24:42.955Z,100.00
2023-10-09T06:27:15.018Z,100.00
2023-10-09T06:30:14.282Z,100.00
2023-10-09T06:32:51.743Z,100.00
2023-10-09T06:35:23.256Z,100.00
2023-10-09T06:38:11.497Z,100.00
2023-10-09T06:41:12.997Z,100.00
2023-10-09T06:43:49.058Z,100.00
2023-10-09T06:46:44.355Z,100.00
2023-10-09T06:49:41.471Z,100.00
2023-10-09T06:52:38.338Z,100.00
2023-10-09T06:55:20.341Z,100.00
2023-10-09T06:57:50.360Z,100.00
2023-10-09T07:00:36.391Z,100.00
2023-10-09T07:03:12.825Z,100.00
2023-10-09T07:06:01.868Z,100.00
2023-10-09T07:08:38.031Z,100.00
2023-10-09T07:11:54.767Z,100.00
2023-10-09T07:14:54.956Z,100.00
2023-10-09T07:17:44.198Z,100.00
2023-10-09T07:20:16.919Z,100.00
2023-10-09T07:23:14.902Z,100.00
2023-10-09T07:25:56.088Z,99.01
2023-10-09T07:28:38.215Z,97.70
2023-10-09T07:31:10.358Z,95.70
2023-10-09T07:36:39.288Z,93.00
2023-10-09T07:39:18.788Z,94.13
2023-10-09T07:41:56.917Z,89.75
2023-10-09T07:44:39.509Z,90.61
2023-10-09T07:47:24.054Z,87.87
2023-10-09T07:49:55.430Z,86.78
2023-10-09T07:52:27.447Z,85.34
2023-10-09T07:55:02.874Z,84.74
2023-10-09T07:57:40.765Z,86.02
2023-10-09T08:00:29.751Z,83.07
2023-10-09T08:03:01.614Z,77.73
2023-10-09T08:05:34.692Z,79.22
2023-10-09T08:08:36.106Z,78.96
2023-10-09T08:11:26.819Z,76.22
2023-10-09T08:14:03.969Z,75.30
2023-10-09T08:16:40.444Z,77.59
2023-10-09T08:19:33.741Z,74.79
2023-10-09T08:22:34.922Z,74.64
2023-10-09T08:25:04.797Z,72.26
2023-10-09T08:27:56.036Z,71.09
2023-10-09T08:30:42.222Z,69.74
2023-10-09T08:36:06.831Z,69.36
2023-10-09T08:38:35.706Z,70.47
2023-10-09T08:41:18.992Z,70.99
2023-10-09T08:43:52.622Z,68.38
2023-10-09T08:46:28.282Z,67.28
2023-10-09T08:48:58.099Z,67.51
2023-10-09T08:51:27.430Z,67.66
2023-10-09T08:53:55.813Z,68.14
2023-10-09T08:56:25.537Z,65.85
2023-10-09T08:58:54.284Z,66.27
2023-10-09T09:01:24.007Z,67.77
2023-10-09T09:03:52.983Z,64.38
2023-10-09T09:06:21.465Z,64.85
2023-10-09T09:08:49.906Z,64.16
2023-10-09T09:11:23.747Z,64.08
2023-10-09T09:14:07.952Z,60.94
2023-10-09T09:16:37.988Z,58.82
2023-10-09T09:19:19.019Z,58.83
2023-10-09T09:21:55.824Z,58.99
2023-10-09T09:24:34.552Z,58.59
2023-10-09T09:27:14.223Z,59.39
2023-10-09T09:29:49.357Z,59.93
2023-10-09T09:32:21.898Z,58.70
2023-10-09T09:34:55.649Z,57.69
2023-10-09T09:37:29.969Z,56.23
2023-10-09T09:40:02.109Z,54.79
2023-10-09T09:42:33.714Z,53.37
2023-10-09T09:45:05.259Z,51.97
2023-10-09T09:47:37.247Z,51.73
2023-10-09T09:50:15.084Z,50.54
2023-10-09T09:52:43.445Z,49.51
2023-10-09T09:55:19.347Z,50.60
2023-10-09T09:57:53.097Z,48.78
2023-10-09T10:00:32.128Z,47.18
2023-10-09T10:03:07.151Z,47.52
2023-10-09T10:05:36.811Z,47.76
2023-10-09T10:08:13.485Z,48.00
2023-10-09T10:10:51.489Z,46.95
2023-10-09T10:13:29.150Z,45.33
2023-10-09T10:16:11.558Z,45.62
2023-10-09T10:18:57.327Z,45.16
2023-10-09T10:21:39.085Z,45.55
2023-10-09T10:24:29.580Z,45.45
2023-10-09T10:27:25.321Z,44.03
2023-10-09T10:30:27.080Z,44.43
2023-10-09T10:33:10.651Z,44.62
2023-10-09T10:35:47.517Z,44.68
2023-10-09T10:38:34.130Z,45.01
2023-10-09T10:41:13.834Z,44.82
2023-10-09T10:44:22.101Z,44.59
2023-10-09T10:46:53.619Z,43.78
2023-10-09T10:49:27.641Z,43.72
2023-10-09T10:52:02.884Z,44.14
2023-10-09T10:55:06.821Z,43.14
2023-10-09T10:57:57.293Z,43.30
2023-10-09T11:00:41.773Z,42.22
2023-10-09T11:03:18.766Z,43.28
2023-10-09T11:05:53.084Z,43.45
2023-10-09T11:08:31.706Z,43.43
2023-10-09T11:11:16.946Z,43.84
2023-10-09T11:13:59.050Z,42.66
2023-10-09T11:16:50.805Z,42.61
2023-10-09T11:19:32.850Z,42.53
2023-10-09T11:22:33.159Z,41.79
2023-10-09T11:25:13.851Z,42.59
2023-10-09T11:27:51.424Z,42.33
2023-10-09T11:30:34.217Z,42.02
2023-10-09T11:33:06.323Z,42.25
2023-10-09T11:35:36.145Z,41.82
2023-10-09T11:38:22.403Z,41.74
2023-10-09T11:41:07.396Z,42.51
2023-10-09T11:43:53.912Z,42.19
2023-10-09T11:46:49.732Z,41.46
2023-10-09T11:49:33.487Z,41.02
2023-10-09T11:52:26.105Z,40.61
2023-10-09T11:54:57.762Z,41.04
2023-10-09T11:57:32.039Z,40.17
2023-10-09T12:00:01.119Z,40.42
2023-10-09T12:02:29.716Z,40.87
2023-10-09T12:04:58.337Z,40.56
2023-10-09T12:07:28.939Z,40.20
2023-10-09T12:09:58.624Z,40.31
2023-10-09T12:12:28.322Z,40.71
2023-10-09T12:14:57.010Z,39.47
2023-10-09T12:17:27.779Z,40.30
2023-10-09T12:19:57.651Z,39.94
2023-10-09T12:22:28.743Z,39.96
2023-10-09T12:24:58.379Z,40.25
2023-10-09T12:27:26.630Z,40.16
2023-10-09T12:29:58.179Z,38.94
2023-10-09T12:32:37.534Z,38.55
2023-10-09T12:35:18.345Z,38.30
2023-10-09T12:37:47.296Z,39.12
2023-10-09T12:40:25.252Z,38.30
2023-10-09T12:42:56.942Z,38.21
2023-10-09T12:45:27.428Z,37.73
2023-10-09T12:48:00.587Z,38.32
2023-10-09T12:50:35.055Z,36.01
2023-10-09T12:53:08.268Z,35.81
2023-10-09T12:55:41.616Z,35.92
2023-10-09T12:58:13.011Z,35.70
2023-10-09T13:00:45.671Z,35.59
2023-10-09T13:03:20.092Z,35.53
2023-10-09T13:05:56.527Z,36.13
2023-10-09T13:08:32.560Z,37.06
2023-10-09T13:11:12.110Z,36.29
2023-10-09T13:13:42.780Z,37.38
2023-10-09T13:16:15.130Z,37.17
2023-10-09T13:18:51.255Z,36.84
2023-10-09T13:21:21.469Z,36.71
2023-10-09T13:23:52.284Z,36.45
2023-10-09T13:26:33.761Z,34.05
2023-10-09T13:29:04.448Z,35.31
2023-10-09T13:31:38.954Z,34.89
2023-10-09T13:34:11.224Z,35.71
2023-10-09T13:36:39.955Z,34.58
2023-10-09T13:39:25.606Z,35.06
2023-10-09T13:42:01.193Z,34.49
2023-10-09T13:44:30.006Z,34.41
2023-10-09T13:46:59.249Z,35.02
2023-10-09T13:49:31.541Z,34.89
2023-10-09T13:52:02.642Z,34.89
2023-10-09T13:54:40.901Z,35.51
2023-10-09T13:57:12.250Z,34.77
2023-10-09T13:59:44.903Z,35.29
2023-10-09T14:02:19.160Z,35.08
2023-10-09T14:04:49.000Z,35.16
2023-10-09T14:07:19.477Z,34.75
2023-10-09T14:09:56.841Z,35.81
2023-10-09T14:12:31.076Z,34.77
2023-10-09T14:14:59.639Z,35.82
2023-10-09T14:17:29.796Z,35.61
2023-10-09T14:20:20.376Z,35.71
2023-10-09T14:22:53.963Z,36.51
2023-10-09T14:25:23.069Z,35.44
2023-10-09T14:27:54.306Z,36.06
2023-10-09T14:30:31.950Z,37.15
2023-10-09T14:33:03.226Z,37.07
2023-10-09T14:35:34.570Z,37.00
2023-10-09T14:38:06.397Z,37.51
2023-10-09T14:40:34.928Z,37.65
2023-10-09T14:43:04.624Z,37.97
2023-10-09T14:45:32.869Z,37.50
2023-10-09T14:48:01.806Z,38.17
2023-10-09T14:50:30.316Z,37.87
2023-10-09T14:53:02.449Z,37.53
2023-10-09T14:55:32.963Z,37.66
2023-10-09T14:58:01.126Z,37.74
2023-10-09T15:00:35.298Z,38.19
2023-10-09T15:03:04.483Z,38.41
2023-10-09T15:05:36.247Z,37.96
2023-10-09T15:08:05.370Z,37.18
2023-10-09T15:10:33.565Z,38.37
2023-10-09T15:13:01.758Z,38.70
2023-10-09T15:15:32.360Z,39.45
2023-10-09T15:18:00.461Z,38.79
2023-10-09T15:20:29.207Z,39.07
2023-10-09T15:22:57.818Z,38.93
2023-10-09T15:25:26.113Z,39.69
2023-10-09T15:27:54.245Z,39.77
2023-10-09T15:30:22.448Z,39.68
2023-10-09T15:32:52.086Z,39.65
2023-10-09T15:35:20.369Z,40.61
2023-10-09T15:37:48.577Z,40.11
2023-10-09T15:40:20.093Z,40.08
2023-10-09T15:42:55.447Z,40.72
2023-10-09T15:45:23.861Z,41.63
2023-10-09T15:47:53.831Z,42.29
2023-10-09T15:50:25.339Z,43.03
2023-10-09T15:52:55.229Z,43.36
2023-10-09T15:55:25.670Z,43.71
2023-10-09T15:57:55.816Z,44.06
2023-10-09T16:00:29.885Z,43.60
2023-10-09T16:03:02.178Z,43.96
2023-10-09T16:05:31.801Z,44.07
2023-10-09T16:08:01.577Z,43.93
2023-10-09T16:10:30.410Z,44.44
2023-10-09T16:12:59.130Z,44.55
2023-10-09T16:15:28.731Z,44.92
2023-10-09T16:18:04.501Z,45.34
2023-10-09T16:20:34.836Z,46.05
2023-10-09T16:23:06.201Z,46.16
2023-10-09T16:25:42.683Z,47.08
2023-10-09T16:28:11.751Z,47.19
2023-10-09T16:30:44.836Z,48.19
2023-10-09T16:33:18.051Z,48.55
2023-10-09T16:35:50.287Z,47.33
2023-10-09T16:38:18.790Z,48.00
2023-10-09T16:40:55.183Z,48.02
2023-10-09T16:43:26.962Z,48.29
2023-10-09T16:45:58.331Z,49.18
2023-10-09T16:48:29.033Z,48.85
2023-10-09T16:51:06.134Z,48.28
2023-10-09T16:53:38.043Z,49.83
2023-10-09T16:56:11.274Z,48.51
2023-10-09T16:58:40.567Z,49.31
2023-10-09T17:01:11.993Z,49.20
2023-10-09T17:03:44.173Z,50.27
2023-10-09T17:06:19.326Z,49.65
2023-10-09T17:08:49.386Z,50.39
2023-10-09T17:11:21.619Z,49.20
2023-10-09T17:13:50.803Z,49.38
2023-10-09T17:16:21.167Z,50.63
2023-10-09T17:18:50.126Z,50.30
2023-10-09T17:21:24.297Z,52.20
2023-10-09T17:23:55.016Z,54.63
2023-10-09T17:26:24.429Z,53.02
2023-10-09T17:28:53.818Z,53.49
2023-10-09T17:31:24.795Z,54.29
2023-10-09T17:33:55.227Z,56.09
2023-10-09T17:36:27.635Z,55.18
2023-10-09T17:38:56.575Z,54.26
2023-10-09T17:41:25.238Z,55.43
2023-10-09T17:43:53.544Z,57.01
2023-10-09T17:46:22.204Z,57.62
2023-10-09T17:48:52.086Z,58.35
2023-10-09T17:51:40.735Z,58.38
2023-10-09T17:54:10.564Z,58.73
2023-10-09T17:56:38.950Z,57.74
2023-10-09T17:59:12.918Z,57.61
2023-10-09T18:01:41.363Z,59.56
2023-10-09T18:04:11.275Z,59.83
2023-10-09T18:06:41.238Z,60.93
2023-10-09T18:09:17.163Z,59.40
2023-10-09T18:11:46.472Z,60.00
2023-10-09T18:14:15.475Z,58.88
2023-10-09T18:16:44.181Z,60.44
2023-10-09T18:19:15.855Z,61.05
2023-10-09T18:21:52.236Z,62.33
2023-10-09T18:24:26.808Z,63.37
2023-10-09T18:26:55.213Z,63.41
2023-10-09T18:29:25.632Z,63.16
2023-10-09T18:31:54.246Z,64.18
2023-10-09T18:34:22.894Z,66.08
2023-10-09T18:36:53.559Z,64.63
2023-10-09T18:39:24.029Z,65.96
2023-10-09T18:41:53.240Z,65.15
2023-10-09T18:44:22.435Z,69.28
2023-10-09T18:46:50.706Z,71.48
2023-10-09T18:49:19.348Z,69.00
2023-10-09T18:51:48.080Z,68.63
2023-10-09T18:54:17.579Z,65.82
2023-10-09T18:56:45.865Z,68.18
2023-10-09T18:59:15.737Z,67.82
2023-10-09T19:01:44.220Z,71.76
2023-10-09T19:04:14.058Z,70.37
2023-10-09T19:06:42.607Z,72.18
2023-10-09T19:09:13.243Z,74.06
2023-10-09T19:11:44.287Z,75.51
2023-10-09T19:14:14.172Z,75.75
2023-10-09T19:16:42.582Z,74.63
2023-10-09T19:19:13.802Z,72.43
2023-10-09T19:21:44.578Z,75.86
2023-10-09T19:24:14.045Z,77.48
2023-10-09T19:26:44.059Z,77.87
2023-10-09T19:29:12.929Z,81.82
2023-10-09T19:31:43.830Z,79.96
2023-10-09T19:34:14.699Z,82.53
2023-10-09T19:36:48.356Z,80.69
2023-10-09T19:39:18.476Z,80.62
2023-10-09T19:41:48.437Z,77.82
2023-10-09T19:44:18.818Z,76.61
2023-10-09T19:46:47.349Z,78.13
2023-10-09T19:49:15.949Z,81.03
2023-10-09T19:51:44.273Z,82.51
2023-10-09T19:54:12.677Z,84.11
2023-10-09T19:56:43.749Z,85.43
2023-10-09T19:59:13.924Z,88.27
2023-10-09T20:01:42.425Z,91.17
2023-10-09T20:04:10.604Z,90.34
2023-10-09T20:06:40.771Z,91.90
2023-10-09T20:09:13.771Z,91.99
2023-10-09T20:11:44.476Z,93.56
2023-10-09T20:14:14.364Z,96.04
2023-10-09T20:16:42.865Z,98.07
2023-10-09T20:19:11.501Z,97.15
2023-10-09T20:21:40.093Z,97.02
2023-10-09T20:24:08.816Z,98.92
2023-10-09T20:26:43.056Z,94.43
2023-10-09T20:29:14.878Z,93.52
2023-10-09T20:31:46.120Z,95.87
2023-10-09T20:34:14.524Z,97.35
2023-10-09T20:36:43.599Z,96.49
2023-10-09T20:39:12.592Z,99.04
2023-10-09T20:41:41.029Z,100.00
2023-10-09T20:44:11.672Z,100.00
2023-10-09T20:46:44.145Z,100.00
2023-10-09T20:49:15.757Z,100.00
2023-10-09T20:51:56.736Z,100.00
2023-10-09T20:54:26.699Z,99.96
2023-10-09T20:56:55.053Z,100.00
2023-10-09T20:59:24.165Z,99.27
2023-10-09T21:01:54.034Z,100.00
2023-10-09T21:04:22.381Z,100.00
2023-10-09T21:06:50.714Z,100.00
2023-10-09T21:09:19.038Z,100.00
2023-10-09T21:11:48.110Z,100.00
2023-10-09T21:14:18.354Z,100.00
2023-10-09T21:16:47.461Z,97.32
2023-10-09T21:19:17.442Z,96.71
2023-10-09T21:21:45.700Z,95.62
2023-10-09T21:24:15.144Z,94.32
2023-10-09T21:26:43.620Z,100.00
2023-10-09T21:29:13.012Z,99.58
2023-10-09T21:31:41.804Z,99.62
2023-10-09T21:34:11.818Z,100.00
2023-10-09T21:36:41.978Z,100.00
2023-10-09T21:39:10.907Z,100.00
2023-10-09T21:41:40.124Z,100.00
2023-10-09T21:44:14.736Z,100.00
2023-10-09T21:46:44.578Z,100.00
2023-10-09T21:49:13.050Z,100.00
2023-10-09T21:51:42.868Z,100.00
2023-10-09T21:54:11.016Z,100.00
2023-10-09T21:56:39.586Z,100.00
2023-10-09T21:59:10.608Z,100.00
2023-10-09T22:01:39.843Z,100.00
2023-10-09T22:04:08.688Z,100.00
2023-10-09T22:06:38.841Z,100.00
2023-10-09T22:09:08.859Z,100.00
2023-10-09T22:11:37.657Z,100.00
2023-10-09T22:14:06.521Z,100.00
2023-10-09T22:16:34.879Z,100.00
2023-10-09T22:19:13.927Z,100.00
2023-10-09T22:21:48.735Z,100.00
2023-10-09T22:24:22.088Z,100.00
2023-10-09T22:26:52.519Z,100.00
2023-10-09T22:29:21.062Z,100.00
2023-10-09T22:31:49.517Z,100.00
2023-10-09T22:34:21.039Z,100.00
2023-10-09T22:39:34.090Z,100.00
2023-10-09T22:42:04.717Z,100.00
2023-10-09T22:44:34.155Z,100.00
2023-10-09T22:47:08.598Z,100.00
2023-10-09T22:49:37.260Z,100.00
2023-10-09T22:52:12.261Z,100.00
2023-10-09T22:54:43.895Z,100.00
2023-10-09T22:57:14.074Z,100.00
2023-10-09T22:59:46.441Z,100.00
2023-10-09T23:02:23.451Z,100.00
2023-10-09T23:04:57.118Z,100.00
2023-10-09T23:07:25.540Z,100.00
2023-10-09T23:09:56.186Z,100.00
2023-10-09T23:12:36.623Z,100.00
2023-10-09T23:15:10.776Z,100.00
2023-10-09T23:17:49.509Z,100.00
2023-10-09T23:20:23.919Z,100.00
2023-10-09T23:22:53.147Z,100.00
2023-10-09T23:25:30.745Z,100.00
2023-10-09T23:30:59.620Z,100.00
2023-10-09T23:33:31.333Z,100.00
2023-10-09T23:36:06.069Z,100.00
2023-10-09T23:38:36.227Z,100.00
2023-10-09T23:41:10.815Z,100.00
2023-10-09T23:43:47.112Z,100.00
2023-10-09T23:46:19.051Z,100.00
2023-10-09T23:48:50.130Z,100.00
2023-10-09T23:51:20.798Z,100.00
2023-10-09T23:53:53.550Z,100.00
2023-10-09T23:56:36.070Z,100.00
2023-10-09T23:59:12.274Z,100.00
